西安 の空港の天気 - METARとTAF

西安咸陽国際空港 ( ZLXY / XIY ) - 中国 陝西省西安市
飛行場実況気象(Metar)
観測時間05/21 06:00 CST (05/20 22:00 UTC)
風向・風速静穏 0m/s
視程10km以上
天気現象
なし
気温9℃
湿度87%
気圧1014hPa
METARZLXY 202200Z 00000MPS CAVOK 09/07 Q1014 NOSIG
過去の天気等 Google飛行場航空写真 Wunderground天気予報

過去48時間のMETAR

飛行場予報(TAF)
発表時間: 5/20 23:04 CST (5/20 15:04 UTC)
予報対象時間: 21日2時 CST ~ 22日2時 CST
風向・風速西 4m/s
視程6000m
なし
TAF ZLXY 201504Z 2018/2118 26004MPS 6000 NSC TX30/2107Z TN12/2021Z